sensor_id;sensor_type;location;lat;lon;timestamp;pressure;altitude;pressure_sealevel;temperature;humidity
8894;BME280;4483;48.622;9.230;2023-04-06T00:00:01;98164.72;;;1.88;66.24
8894;BME280;4483;48.622;9.230;2023-04-06T00:02:29;98151.16;;;1.86;66.23
8894;BME280;4483;48.622;9.230;2023-04-06T00:04:57;98156.25;;;1.83;65.83
8894;BME280;4483;48.622;9.230;2023-04-06T00:07:24;98149.47;;;1.80;66.00
8894;BME280;4483;48.622;9.230;2023-04-06T00:09:51;98154.56;;;1.79;66.56
8894;BME280;4483;48.622;9.230;2023-04-06T00:12:18;98146.97;;;1.77;66.55
8894;BME280;4483;48.622;9.230;2023-04-06T00:14:45;98148.63;;;1.77;66.20
8894;BME280;4483;48.622;9.230;2023-04-06T00:17:11;98144.41;;;1.79;66.82
8894;BME280;4483;48.622;9.230;2023-04-06T00:19:38;98144.41;;;1.77;66.67
8894;BME280;4483;48.622;9.230;2023-04-06T00:22:07;98138.50;;;1.75;66.67
8894;BME280;4483;48.622;9.230;2023-04-06T00:24:33;98135.09;;;1.72;66.24
8894;BME280;4483;48.622;9.230;2023-04-06T00:27:00;98134.25;;;1.67;66.45
8894;BME280;4483;48.622;9.230;2023-04-06T00:29:27;98130.03;;;1.63;66.73
8894;BME280;4483;48.622;9.230;2023-04-06T00:31:54;98127.47;;;1.60;66.97
8894;BME280;4483;48.622;9.230;2023-04-06T00:34:20;98133.44;;;1.57;67.60
8894;BME280;4483;48.622;9.230;2023-04-06T00:36:47;98132.59;;;1.54;67.62
8894;BME280;4483;48.622;9.230;2023-04-06T00:39:15;98132.56;;;1.51;67.38
8894;BME280;4483;48.622;9.230;2023-04-06T00:41:46;98135.13;;;1.49;67.45
8894;BME280;4483;48.622;9.230;2023-04-06T00:44:14;98130.06;;;1.46;67.64
8894;BME280;4483;48.622;9.230;2023-04-06T00:46:40;98130.03;;;1.43;67.82
8894;BME280;4483;48.622;9.230;2023-04-06T00:49:07;98123.28;;;1.41;67.92
8894;BME280;4483;48.622;9.230;2023-04-06T00:51:34;98124.09;;;1.40;67.88
8894;BME280;4483;48.622;9.230;2023-04-06T00:54:01;98124.97;;;1.39;67.98
8894;BME280;4483;48.622;9.230;2023-04-06T00:56:29;98121.59;;;1.34;68.18
8894;BME280;4483;48.622;9.230;2023-04-06T00:58:55;98117.34;;;1.31;68.26
8894;BME280;4483;48.622;9.230;2023-04-06T01:01:23;98113.97;;;1.31;68.22
8894;BME280;4483;48.622;9.230;2023-04-06T01:03:51;98119.91;;;1.30;68.45
8894;BME280;4483;48.622;9.230;2023-04-06T01:06:18;98122.41;;;1.27;69.07
8894;BME280;4483;48.622;9.230;2023-04-06T01:08:45;98117.34;;;1.27;68.47
8894;BME280;4483;48.622;9.230;2023-04-06T01:11:11;98114.78;;;1.27;68.11
8894;BME280;4483;48.622;9.230;2023-04-06T01:13:39;98112.25;;;1.27;68.76
8894;BME280;4483;48.622;9.230;2023-04-06T01:16:06;98112.28;;;1.24;68.56
8894;BME280;4483;48.622;9.230;2023-04-06T01:18:35;98117.34;;;1.24;68.66
8894;BME280;4483;48.622;9.230;2023-04-06T01:21:02;98115.66;;;1.23;68.54
8894;BME280;4483;48.622;9.230;2023-04-06T01:23:30;98108.88;;;1.22;69.25
8894;BME280;4483;48.622;9.230;2023-04-06T01:25:57;98111.44;;;1.20;68.41
8894;BME280;4483;48.622;9.230;2023-04-06T01:28:24;98104.66;;;1.18;68.66
8894;BME280;4483;48.622;9.230;2023-04-06T01:30:50;98105.50;;;1.17;69.42
8894;BME280;4483;48.622;9.230;2023-04-06T01:33:17;98100.44;;;1.17;69.13
8894;BME280;4483;48.622;9.230;2023-04-06T01:35:44;98097.91;;;1.17;68.64
8894;BME280;4483;48.622;9.230;2023-04-06T01:38:11;98106.34;;;1.16;69.25
8894;BME280;4483;48.622;9.230;2023-04-06T01:40:39;98109.72;;;1.10;69.43
8894;BME280;4483;48.622;9.230;2023-04-06T01:43:06;98106.31;;;1.07;69.48
8894;BME280;4483;48.622;9.230;2023-04-06T01:45:33;98099.59;;;1.04;69.97
8894;BME280;4483;48.622;9.230;2023-04-06T01:47:59;98099.59;;;1.02;69.12
8894;BME280;4483;48.622;9.230;2023-04-06T01:50:26;98097.03;;;0.99;69.30
8894;BME280;4483;48.622;9.230;2023-04-06T01:52:53;98097.88;;;0.97;69.38
8894;BME280;4483;48.622;9.230;2023-04-06T01:55:20;98094.50;;;0.95;69.45
8894;BME280;4483;48.622;9.230;2023-04-06T01:57:48;98094.47;;;0.93;70.42
8894;BME280;4483;48.622;9.230;2023-04-06T02:00:15;98088.59;;;0.91;69.80
8894;BME280;4483;48.622;9.230;2023-04-06T02:02:42;98095.34;;;0.89;70.05
8894;BME280;4483;48.622;9.230;2023-04-06T02:05:09;98091.09;;;0.87;70.01
8894;BME280;4483;48.622;9.230;2023-04-06T02:07:36;98097.00;;;0.81;70.37
8894;BME280;4483;48.622;9.230;2023-04-06T02:10:03;98093.63;;;0.79;70.54
8894;BME280;4483;48.622;9.230;2023-04-06T02:12:30;98086.88;;;0.78;70.47
8894;BME280;4483;48.622;9.230;2023-04-06T02:14:58;98094.47;;;0.78;70.12
8894;BME280;4483;48.622;9.230;2023-04-06T02:17:25;98093.63;;;0.76;70.18
8894;BME280;4483;48.622;9.230;2023-04-06T02:19:51;98091.09;;;0.75;70.79
8894;BME280;4483;48.622;9.230;2023-04-06T02:22:18;98097.00;;;0.74;70.80
8894;BME280;4483;48.622;9.230;2023-04-06T02:24:45;98090.25;;;0.71;70.66
8894;BME280;4483;48.622;9.230;2023-04-06T02:27:13;98091.06;;;0.70;70.33
8894;BME280;4483;48.622;9.230;2023-04-06T02:29:40;98085.13;;;0.70;70.87
8894;BME280;4483;48.622;9.230;2023-04-06T02:32:08;98091.06;;;0.70;70.59
8894;BME280;4483;48.622;9.230;2023-04-06T02:34:35;98091.06;;;0.67;70.53
8894;BME280;4483;48.622;9.230;2023-04-06T02:37:02;98082.59;;;0.62;71.05
8894;BME280;4483;48.622;9.230;2023-04-06T02:39:28;98098.66;;;0.58;71.04
8894;BME280;4483;48.622;9.230;2023-04-06T02:41:55;98092.75;;;0.55;71.19
8894;BME280;4483;48.622;9.230;2023-04-06T02:44:22;98091.03;;;0.52;71.63
8894;BME280;4483;48.622;9.230;2023-04-06T02:46:49;98083.44;;;0.49;71.11
8894;BME280;4483;48.622;9.230;2023-04-06T02:49:17;98086.78;;;0.45;72.14
8894;BME280;4483;48.622;9.230;2023-04-06T02:51:44;98087.63;;;0.43;71.64
8894;BME280;4483;48.622;9.230;2023-04-06T02:54:11;98085.94;;;0.42;71.81
8894;BME280;4483;48.622;9.230;2023-04-06T02:56:37;98084.22;;;0.39;71.38
8894;BME280;4483;48.622;9.230;2023-04-06T02:59:04;98083.38;;;0.37;72.42
8894;BME280;4483;48.622;9.230;2023-04-06T03:01:31;98079.97;;;0.34;72.08
8894;BME280;4483;48.622;9.230;2023-04-06T03:03:58;98082.50;;;0.32;71.69
8894;BME280;4483;48.622;9.230;2023-04-06T03:06:26;98085.06;;;0.29;71.95
8894;BME280;4483;48.622;9.230;2023-04-06T03:08:53;98093.47;;;0.28;72.18
8894;BME280;4483;48.622;9.230;2023-04-06T03:11:20;98095.16;;;0.26;72.35
8894;BME280;4483;48.622;9.230;2023-04-06T03:13:47;98093.47;;;0.25;72.49
8894;BME280;4483;48.622;9.230;2023-04-06T03:16:14;98091.75;;;0.24;72.88
8894;BME280;4483;48.622;9.230;2023-04-06T03:18:41;98081.63;;;0.24;72.25
8894;BME280;4483;48.622;9.230;2023-04-06T03:21:10;98090.94;;;0.25;72.51
8894;BME280;4483;48.622;9.230;2023-04-06T03:23:38;98082.47;;;0.26;72.72
8894;BME280;4483;48.622;9.230;2023-04-06T03:26:04;98086.69;;;0.23;72.50
8894;BME280;4483;48.622;9.230;2023-04-06T03:28:31;98088.38;;;0.19;72.27
8894;BME280;4483;48.622;9.230;2023-04-06T03:30:58;98089.19;;;0.17;72.88
8894;BME280;4483;48.622;9.230;2023-04-06T03:33:25;98095.97;;;0.15;72.69
8894;BME280;4483;48.622;9.230;2023-04-06T03:35:52;98085.81;;;0.12;72.60
8894;BME280;4483;48.622;9.230;2023-04-06T03:38:19;98096.78;;;0.11;72.85
8894;BME280;4483;48.622;9.230;2023-04-06T03:40:47;98098.47;;;0.09;73.33
8894;BME280;4483;48.622;9.230;2023-04-06T03:43:14;98097.63;;;0.07;72.95
8894;BME280;4483;48.622;9.230;2023-04-06T03:45:41;98096.75;;;0.03;73.11
8894;BME280;4483;48.622;9.230;2023-04-06T03:48:07;98105.19;;;0.02;72.96
8894;BME280;4483;48.622;9.230;2023-04-06T03:50:34;98105.19;;;-0.01;73.17
8894;BME280;4483;48.622;9.230;2023-04-06T03:53:01;98106.84;;;-0.06;73.14
8894;BME280;4483;48.622;9.230;2023-04-06T03:55:28;98105.13;;;-0.10;73.28
8894;BME280;4483;48.622;9.230;2023-04-06T03:57:56;98101.75;;;-0.12;73.59
8894;BME280;4483;48.622;9.230;2023-04-06T04:00:23;98101.75;;;-0.12;73.50
8894;BME280;4483;48.622;9.230;2023-04-06T04:02:49;98106.81;;;-0.12;73.50
8894;BME280;4483;48.622;9.230;2023-04-06T04:05:16;98108.47;;;-0.14;74.02
8894;BME280;4483;48.622;9.230;2023-04-06T04:07:43;98105.09;;;-0.15;74.13
8894;BME280;4483;48.622;9.230;2023-04-06T04:10:10;98113.53;;;-0.14;73.80
8894;BME280;4483;48.622;9.230;2023-04-06T04:12:36;98114.41;;;-0.17;73.86
8894;BME280;4483;48.622;9.230;2023-04-06T04:15:05;98119.41;;;-0.18;74.25
8894;BME280;4483;48.622;9.230;2023-04-06T04:17:32;98116.03;;;-0.20;73.93
8894;BME280;4483;48.622;9.230;2023-04-06T04:19:59;98117.69;;;-0.24;74.46
8894;BME280;4483;48.622;9.230;2023-04-06T04:22:26;98119.38;;;-0.29;74.42
8894;BME280;4483;48.622;9.230;2023-04-06T04:24:53;98117.69;;;-0.31;74.71
8894;BME280;4483;48.622;9.230;2023-04-06T04:27:20;98117.63;;;-0.39;74.75
8894;BME280;4483;48.622;9.230;2023-04-06T04:29:47;98119.25;;;-0.45;74.60
8894;BME280;4483;48.622;9.230;2023-04-06T04:32:15;98123.44;;;-0.47;75.03
8894;BME280;4483;48.622;9.230;2023-04-06T04:34:42;98118.38;;;-0.47;75.10
8894;BME280;4483;48.622;9.230;2023-04-06T04:37:09;98125.16;;;-0.48;75.33
8894;BME280;4483;48.622;9.230;2023-04-06T04:39:35;98119.25;;;-0.45;75.39
8894;BME280;4483;48.622;9.230;2023-04-06T04:42:02;98121.78;;;-0.48;74.98
8894;BME280;4483;48.622;9.230;2023-04-06T04:44:29;98118.38;;;-0.50;75.03
8894;BME280;4483;48.622;9.230;2023-04-06T04:46:56;98128.50;;;-0.52;75.38
8894;BME280;4483;48.622;9.230;2023-04-06T04:49:24;98126.78;;;-0.51;75.38
8894;BME280;4483;48.622;9.230;2023-04-06T04:51:51;98127.66;;;-0.51;75.46
8894;BME280;4483;48.622;9.230;2023-04-06T04:54:18;98125.97;;;-0.50;75.55
8894;BME280;4483;48.622;9.230;2023-04-06T04:56:45;98126.78;;;-0.56;76.04
8894;BME280;4483;48.622;9.230;2023-04-06T04:59:12;98130.13;;;-0.58;75.76
8894;BME280;4483;48.622;9.230;2023-04-06T05:01:39;98131.84;;;-0.57;76.47
8894;BME280;4483;48.622;9.230;2023-04-06T05:04:05;98130.97;;;-0.56;76.34
8894;BME280;4483;48.622;9.230;2023-04-06T05:06:34;98136.91;;;-0.56;76.29
8894;BME280;4483;48.622;9.230;2023-04-06T05:09:00;98135.22;;;-0.55;76.47
8894;BME280;4483;48.622;9.230;2023-04-06T05:11:27;98135.22;;;-0.52;76.38
8894;BME280;4483;48.622;9.230;2023-04-06T05:13:54;98140.34;;;-0.46;76.62
8894;BME280;4483;48.622;9.230;2023-04-06T05:16:21;98141.22;;;-0.40;76.53
8894;BME280;4483;48.622;9.230;2023-04-06T05:18:48;98139.59;;;-0.32;76.59
8894;BME280;4483;48.622;9.230;2023-04-06T05:21:15;98138.81;;;-0.22;76.85
8894;BME280;4483;48.622;9.230;2023-04-06T05:23:43;98156.63;;;-0.10;77.09
8894;BME280;4483;48.622;9.230;2023-04-06T05:26:10;98146.56;;;0.01;76.36
8894;BME280;4483;48.622;9.230;2023-04-06T05:28:36;98158.44;;;0.14;77.22
8894;BME280;4483;48.622;9.230;2023-04-06T05:31:03;98158.50;;;0.28;77.08
8894;BME280;4483;48.622;9.230;2023-04-06T05:33:30;98168.72;;;0.41;76.17
8894;BME280;4483;48.622;9.230;2023-04-06T05:35:57;98162.00;;;0.49;76.23
8894;BME280;4483;48.622;9.230;2023-04-06T05:38:25;98162.88;;;0.56;75.42
8894;BME280;4483;48.622;9.230;2023-04-06T05:40:54;98166.28;;;0.65;75.69
8894;BME280;4483;48.622;9.230;2023-04-06T05:43:21;98159.56;;;0.81;75.79
8894;BME280;4483;48.622;9.230;2023-04-06T05:45:47;98151.16;;;0.97;75.67
8894;BME280;4483;48.622;9.230;2023-04-06T05:48:16;98157.94;;;1.15;75.14
8894;BME280;4483;48.622;9.230;2023-04-06T05:50:42;98162.22;;;1.34;74.91
8894;BME280;4483;48.622;9.230;2023-04-06T05:53:09;98157.97;;;1.51;74.43
8894;BME280;4483;48.622;9.230;2023-04-06T05:55:37;98158.81;;;1.69;74.45
8894;BME280;4483;48.622;9.230;2023-04-06T05:58:05;98157.94;;;1.88;74.52
8894;BME280;4483;48.622;9.230;2023-04-06T06:00:32;98160.44;;;2.08;73.46
8894;BME280;4483;48.622;9.230;2023-04-06T06:02:59;98159.53;;;2.24;72.95
8894;BME280;4483;48.622;9.230;2023-04-06T06:05:29;98159.50;;;2.39;72.37
8894;BME280;4483;48.622;9.230;2023-04-06T06:07:56;98166.25;;;2.52;72.25
8894;BME280;4483;48.622;9.230;2023-04-06T06:10:23;98167.00;;;2.69;72.06
8894;BME280;4483;48.622;9.230;2023-04-06T06:12:49;98159.25;;;2.92;72.45
8894;BME280;4483;48.622;9.230;2023-04-06T06:15:18;98164.16;;;3.21;72.24
8894;BME280;4483;48.622;9.230;2023-04-06T06:17:44;98163.16;;;3.46;71.54
8894;BME280;4483;48.622;9.230;2023-04-06T06:20:12;98161.28;;;3.69;70.78
8894;BME280;4483;48.622;9.230;2023-04-06T06:22:39;98157.69;;;3.86;70.28
8894;BME280;4483;48.622;9.230;2023-04-06T06:25:06;98163.47;;;4.05;69.53
8894;BME280;4483;48.622;9.230;2023-04-06T06:27:34;98165.00;;;4.23;69.42
8894;BME280;4483;48.622;9.230;2023-04-06T06:30:01;98160.50;;;4.46;69.08
8894;BME280;4483;48.622;9.230;2023-04-06T06:32:29;98161.88;;;4.71;68.62
8894;BME280;4483;48.622;9.230;2023-04-06T06:34:58;98150.44;;;5.00;67.92
8894;BME280;4483;48.622;9.230;2023-04-06T06:37:24;98150.78;;;5.36;68.49
8894;BME280;4483;48.622;9.230;2023-04-06T06:39:52;98152.81;;;5.69;66.92
8894;BME280;4483;48.622;9.230;2023-04-06T06:42:18;98157.44;;;5.97;66.53
8894;BME280;4483;48.622;9.230;2023-04-06T06:44:45;98151.09;;;6.20;65.20
8894;BME280;4483;48.622;9.230;2023-04-06T06:47:12;98157.41;;;6.46;64.90
8894;BME280;4483;48.622;9.230;2023-04-06T06:49:40;98149.19;;;6.73;64.86
8894;BME280;4483;48.622;9.230;2023-04-06T06:52:07;98151.88;;;7.05;63.70
8894;BME280;4483;48.622;9.230;2023-04-06T06:54:33;98147.72;;;7.38;63.46
8894;BME280;4483;48.622;9.230;2023-04-06T06:57:00;98144.44;;;7.68;63.07
8894;BME280;4483;48.622;9.230;2023-04-06T06:59:27;98146.41;;;7.92;60.18
8894;BME280;4483;48.622;9.230;2023-04-06T07:01:54;98151.28;;;8.03;59.28
8894;BME280;4483;48.622;9.230;2023-04-06T07:04:21;98149.28;;;8.14;60.09
8894;BME280;4483;48.622;9.230;2023-04-06T07:06:49;98152.19;;;8.34;59.68
8894;BME280;4483;48.622;9.230;2023-04-06T07:09:16;98150.78;;;8.55;57.97
8894;BME280;4483;48.622;9.230;2023-04-06T07:11:43;98151.97;;;8.72;57.34
8894;BME280;4483;48.622;9.230;2023-04-06T07:14:10;98138.59;;;8.90;57.13
8894;BME280;4483;48.622;9.230;2023-04-06T07:16:37;98147.28;;;9.16;56.88
8894;BME280;4483;48.622;9.230;2023-04-06T07:19:03;98140.63;;;9.36;55.16
8894;BME280;4483;48.622;9.230;2023-04-06T07:21:30;98134.78;;;9.59;54.67
8894;BME280;4483;48.622;9.230;2023-04-06T07:23:58;98142.38;;;9.88;54.83
8894;BME280;4483;48.622;9.230;2023-04-06T07:26:26;98148.41;;;10.13;51.41
8894;BME280;4483;48.622;9.230;2023-04-06T07:28:52;98141.38;;;10.43;53.94
8894;BME280;4483;48.622;9.230;2023-04-06T07:31:19;98138.59;;;10.72;53.19
8894;BME280;4483;48.622;9.230;2023-04-06T07:33:46;98137.91;;;10.90;51.72
8894;BME280;4483;48.622;9.230;2023-04-06T07:36:13;98137.50;;;11.24;51.73
8894;BME280;4483;48.622;9.230;2023-04-06T07:38:40;98135.88;;;11.64;50.99
8894;BME280;4483;48.622;9.230;2023-04-06T07:41:08;98131.22;;;11.94;50.64
8894;BME280;4483;48.622;9.230;2023-04-06T07:43:35;98137.56;;;12.07;49.45
8894;BME280;4483;48.622;9.230;2023-04-06T07:46:02;98134.09;;;12.28;48.50
8894;BME280;4483;48.622;9.230;2023-04-06T07:48:29;98125.00;;;12.58;47.80
8894;BME280;4483;48.622;9.230;2023-04-06T07:51:01;98115.25;;;12.83;47.65
8894;BME280;4483;48.622;9.230;2023-04-06T07:53:28;98122.06;;;13.04;47.06
8894;BME280;4483;48.622;9.230;2023-04-06T07:55:55;98118.78;;;13.20;46.13
8894;BME280;4483;48.622;9.230;2023-04-06T07:58:24;98122.47;;;13.33;45.40
8894;BME280;4483;48.622;9.230;2023-04-06T08:00:51;98117.63;;;13.61;44.92
8894;BME280;4483;48.622;9.230;2023-04-06T08:03:18;98118.06;;;13.87;43.26
8894;BME280;4483;48.622;9.230;2023-04-06T08:05:46;98116.28;;;14.05;43.00
8894;BME280;4483;48.622;9.230;2023-04-06T08:08:13;98125.13;;;14.01;41.85
8894;BME280;4483;48.622;9.230;2023-04-06T08:10:40;98121.41;;;13.89;41.99
8894;BME280;4483;48.622;9.230;2023-04-06T08:13:06;98118.06;;;13.87;41.34
8894;BME280;4483;48.622;9.230;2023-04-06T08:15:35;98119.44;;;13.94;41.21
8894;BME280;4483;48.622;9.230;2023-04-06T08:18:02;98117.66;;;14.12;40.72
8894;BME280;4483;48.622;9.230;2023-04-06T08:20:29;98121.31;;;14.25;40.24
8894;BME280;4483;48.622;9.230;2023-04-06T08:22:56;98115.78;;;14.33;38.87
8894;BME280;4483;48.622;9.230;2023-04-06T08:25:23;98116.44;;;14.36;38.32
8894;BME280;4483;48.622;9.230;2023-04-06T08:27:49;98106.97;;;14.52;38.23
8894;BME280;4483;48.622;9.230;2023-04-06T08:30:17;98104.50;;;14.82;37.87
8894;BME280;4483;48.622;9.230;2023-04-06T08:32:46;98113.75;;;15.03;37.71
8894;BME280;4483;48.622;9.230;2023-04-06T08:35:12;98114.09;;;15.28;36.42
8894;BME280;4483;48.622;9.230;2023-04-06T08:37:39;98106.22;;;15.30;35.93
8894;BME280;4483;48.622;9.230;2023-04-06T08:40:07;98108.94;;;15.44;36.72
8894;BME280;4483;48.622;9.230;2023-04-06T08:42:39;98113.34;;;15.57;35.34
8894;BME280;4483;48.622;9.230;2023-04-06T08:45:08;98112.72;;;15.68;34.93
8894;BME280;4483;48.622;9.230;2023-04-06T08:47:36;98100.72;;;15.81;34.82
8894;BME280;4483;48.622;9.230;2023-04-06T08:50:05;98112.09;;;16.08;34.69
8894;BME280;4483;48.622;9.230;2023-04-06T08:52:32;98097.25;;;16.10;34.02
8894;BME280;4483;48.622;9.230;2023-04-06T08:55:00;98105.38;;;16.34;34.24
8894;BME280;4483;48.622;9.230;2023-04-06T08:57:27;98093.56;;;16.72;34.35
8894;BME280;4483;48.622;9.230;2023-04-06T08:59:55;98090.63;;;16.90;33.59
8894;BME280;4483;48.622;9.230;2023-04-06T09:02:22;98088.56;;;17.09;33.11
8894;BME280;4483;48.622;9.230;2023-04-06T09:04:53;98079.38;;;17.04;32.80
8894;BME280;4483;48.622;9.230;2023-04-06T09:07:21;98083.66;;;17.05;32.97
8894;BME280;4483;48.622;9.230;2023-04-06T09:09:49;98079.81;;;17.10;32.87
8894;BME280;4483;48.622;9.230;2023-04-06T09:12:23;98082.63;;;17.07;32.95
8894;BME280;4483;48.622;9.230;2023-04-06T09:14:50;98078.81;;;17.13;32.26
8894;BME280;4483;48.622;9.230;2023-04-06T09:17:21;98081.19;;;17.16;30.87
8894;BME280;4483;48.622;9.230;2023-04-06T09:19:49;98080.28;;;17.17;31.41
8894;BME280;4483;48.622;9.230;2023-04-06T09:22:16;98082.34;;;17.39;31.73
8894;BME280;4483;48.622;9.230;2023-04-06T09:24:46;98077.41;;;17.75;31.64
8894;BME280;4483;48.622;9.230;2023-04-06T09:27:13;98081.31;;;17.94;31.51
8894;BME280;4483;48.622;9.230;2023-04-06T09:29:40;98080.72;;;18.03;31.29
8894;BME280;4483;48.622;9.230;2023-04-06T09:32:08;98076.13;;;18.07;31.56
8894;BME280;4483;48.622;9.230;2023-04-06T09:34:37;98066.22;;;18.12;31.76
8894;BME280;4483;48.622;9.230;2023-04-06T09:37:12;98072.16;;;18.14;30.59
8894;BME280;4483;48.622;9.230;2023-04-06T09:39:39;98067.78;;;18.27;30.48
8894;BME280;4483;48.622;9.230;2023-04-06T09:42:08;98073.00;;;18.27;30.42
8894;BME280;4483;48.622;9.230;2023-04-06T09:44:35;98064.25;;;18.53;30.21
8894;BME280;4483;48.622;9.230;2023-04-06T09:47:04;98063.78;;;18.97;30.16
8894;BME280;4483;48.622;9.230;2023-04-06T09:49:33;98060.94;;;19.36;29.49
8894;BME280;4483;48.622;9.230;2023-04-06T09:52:02;98062.06;;;19.68;28.96
8894;BME280;4483;48.622;9.230;2023-04-06T09:54:30;98058.78;;;19.77;26.75
8894;BME280;4483;48.622;9.230;2023-04-06T09:57:03;98057.44;;;19.72;26.57
8894;BME280;4483;48.622;9.230;2023-04-06T09:59:39;98063.59;;;19.71;26.70
8894;BME280;4483;48.622;9.230;2023-04-06T10:02:15;98053.66;;;19.76;26.12
8894;BME280;4483;48.622;9.230;2023-04-06T10:04:53;98049.59;;;19.72;25.95
8894;BME280;4483;48.622;9.230;2023-04-06T10:07:23;98058.84;;;19.65;24.05
8894;BME280;4483;48.622;9.230;2023-04-06T10:09:50;98054.94;;;19.70;24.90
8894;BME280;4483;48.622;9.230;2023-04-06T10:12:20;98048.06;;;19.80;25.11
8894;BME280;4483;48.622;9.230;2023-04-06T10:14:48;98044.44;;;19.94;24.89
8894;BME280;4483;48.622;9.230;2023-04-06T10:17:16;98045.53;;;20.02;24.54
8894;BME280;4483;48.622;9.230;2023-04-06T10:19:46;98048.97;;;20.03;24.96
8894;BME280;4483;48.622;9.230;2023-04-06T10:22:22;98038.69;;;20.35;24.44
8894;BME280;4483;48.622;9.230;2023-04-06T10:24:50;98023.72;;;20.70;24.68
8894;BME280;4483;48.622;9.230;2023-04-06T10:27:27;98031.69;;;20.90;24.34
8894;BME280;4483;48.622;9.230;2023-04-06T10:30:01;98032.03;;;21.08;24.08
8894;BME280;4483;48.622;9.230;2023-04-06T10:32:33;98029.66;;;20.94;23.95
8894;BME280;4483;48.622;9.230;2023-04-06T10:35:08;98035.16;;;20.80;24.27
8894;BME280;4483;48.622;9.230;2023-04-06T10:37:50;98034.56;;;20.54;22.74
8894;BME280;4483;48.622;9.230;2023-04-06T10:40:23;98029.66;;;20.28;23.35
8894;BME280;4483;48.622;9.230;2023-04-06T10:42:52;98022.50;;;20.19;22.68
8894;BME280;4483;48.622;9.230;2023-04-06T10:45:21;98025.59;;;20.24;22.89
8894;BME280;4483;48.622;9.230;2023-04-06T10:47:52;98026.63;;;19.99;23.16
8894;BME280;4483;48.622;9.230;2023-04-06T10:50:19;98024.72;;;20.01;23.08
8894;BME280;4483;48.622;9.230;2023-04-06T10:52:47;98017.53;;;20.27;23.34
8894;BME280;4483;48.622;9.230;2023-04-06T10:55:25;98016.22;;;20.76;23.18
8894;BME280;4483;48.622;9.230;2023-04-06T10:57:52;98014.72;;;21.28;23.08
8894;BME280;4483;48.622;9.230;2023-04-06T11:00:21;98011.22;;;21.70;23.02
8894;BME280;4483;48.622;9.230;2023-04-06T11:02:47;98008.31;;;21.84;22.47
8894;BME280;4483;48.622;9.230;2023-04-06T11:05:14;98009.16;;;21.84;22.25
8894;BME280;4483;48.622;9.230;2023-04-06T11:07:44;98010.28;;;21.91;22.36
8894;BME280;4483;48.622;9.230;2023-04-06T11:10:11;98010.72;;;22.17;22.32
8894;BME280;4483;48.622;9.230;2023-04-06T11:12:38;98012.84;;;22.53;21.95
8894;BME280;4483;48.622;9.230;2023-04-06T11:15:05;98006.44;;;22.76;21.80
8894;BME280;4483;48.622;9.230;2023-04-06T11:17:36;98005.28;;;23.00;21.36
8894;BME280;4483;48.622;9.230;2023-04-06T11:20:04;98001.69;;;23.10;21.08
8894;BME280;4483;48.622;9.230;2023-04-06T11:22:36;97989.53;;;23.19;20.93
8894;BME280;4483;48.622;9.230;2023-04-06T11:25:06;97997.50;;;22.88;20.64
8894;BME280;4483;48.622;9.230;2023-04-06T11:27:34;97986.50;;;22.64;20.37
8894;BME280;4483;48.622;9.230;2023-04-06T11:30:02;97995.50;;;22.71;19.89
8894;BME280;4483;48.622;9.230;2023-04-06T11:32:29;97992.50;;;22.76;18.98
8894;BME280;4483;48.622;9.230;2023-04-06T11:34:57;97985.16;;;22.49;18.89
8894;BME280;4483;48.622;9.230;2023-04-06T11:37:26;97984.97;;;22.62;19.17
8894;BME280;4483;48.622;9.230;2023-04-06T11:39:54;97982.47;;;22.60;18.69
8894;BME280;4483;48.622;9.230;2023-04-06T11:42:23;97984.16;;;22.61;18.73
8894;BME280;4483;48.622;9.230;2023-04-06T11:44:50;97971.28;;;22.58;18.64
8894;BME280;4483;48.622;9.230;2023-04-06T11:47:18;97976.91;;;22.54;18.35
8894;BME280;4483;48.622;9.230;2023-04-06T11:49:45;97970.47;;;22.67;18.14
8894;BME280;4483;48.622;9.230;2023-04-06T11:52:19;97967.56;;;22.61;18.00
8894;BME280;4483;48.622;9.230;2023-04-06T11:54:47;97965.78;;;22.61;18.55
8894;BME280;4483;48.622;9.230;2023-04-06T11:57:14;97964.03;;;22.81;18.55
8894;BME280;4483;48.622;9.230;2023-04-06T11:59:42;97964.75;;;23.02;18.55
8894;BME280;4483;48.622;9.230;2023-04-06T12:02:09;97958.00;;;23.09;18.84
8894;BME280;4483;48.622;9.230;2023-04-06T12:04:37;97956.00;;;22.82;18.47
8894;BME280;4483;48.622;9.230;2023-04-06T12:07:04;97954.72;;;22.58;18.61
8894;BME280;4483;48.622;9.230;2023-04-06T12:09:32;97953.06;;;22.36;18.53
8894;BME280;4483;48.622;9.230;2023-04-06T12:12:01;97938.25;;;22.26;18.97
8894;BME280;4483;48.622;9.230;2023-04-06T12:14:28;97942.13;;;22.31;18.86
8894;BME280;4483;48.622;9.230;2023-04-06T12:16:56;97942.22;;;22.20;18.94
8894;BME280;4483;48.622;9.230;2023-04-06T12:19:22;97945.13;;;22.17;18.62
8894;BME280;4483;48.622;9.230;2023-04-06T12:21:51;97938.34;;;21.94;18.22
8894;BME280;4483;48.622;9.230;2023-04-06T12:24:18;97942.97;;;21.60;18.37
8894;BME280;4483;48.622;9.230;2023-04-06T12:26:46;97943.53;;;21.43;18.05
8894;BME280;4483;48.622;9.230;2023-04-06T12:29:13;97941.31;;;21.07;17.84
8894;BME280;4483;48.622;9.230;2023-04-06T12:31:40;97934.47;;;20.73;18.06
8894;BME280;4483;48.622;9.230;2023-04-06T12:34:09;97933.91;;;20.47;18.59
8894;BME280;4483;48.622;9.230;2023-04-06T12:36:37;97936.03;;;20.42;18.46
8894;BME280;4483;48.622;9.230;2023-04-06T12:39:04;97924.38;;;20.46;18.94
8894;BME280;4483;48.622;9.230;2023-04-06T12:41:31;97924.38;;;20.46;19.00
8894;BME280;4483;48.622;9.230;2023-04-06T12:44:00;97917.72;;;20.53;19.12
8894;BME280;4483;48.622;9.230;2023-04-06T12:46:27;97917.09;;;20.72;19.37
8894;BME280;4483;48.622;9.230;2023-04-06T12:48:55;97926.19;;;20.99;19.48
8894;BME280;4483;48.622;9.230;2023-04-06T12:51:23;97920.50;;;20.83;19.31
8894;BME280;4483;48.622;9.230;2023-04-06T12:53:50;97915.69;;;20.57;19.19
8894;BME280;4483;48.622;9.230;2023-04-06T12:56:17;97914.19;;;20.32;19.25
8894;BME280;4483;48.622;9.230;2023-04-06T12:58:46;97912.59;;;19.96;19.85
8894;BME280;4483;48.622;9.230;2023-04-06T13:01:15;97909.63;;;19.79;20.03
8894;BME280;4483;48.622;9.230;2023-04-06T13:03:42;97916.16;;;19.73;19.93
8894;BME280;4483;48.622;9.230;2023-04-06T13:06:09;97915.28;;;19.62;20.10
8894;BME280;4483;48.622;9.230;2023-04-06T13:08:36;97913.13;;;19.56;19.84
8894;BME280;4483;48.622;9.230;2023-04-06T13:11:03;97912.66;;;19.51;20.40
8894;BME280;4483;48.622;9.230;2023-04-06T13:13:31;97912.09;;;19.58;19.92
8894;BME280;4483;48.622;9.230;2023-04-06T13:16:00;97900.22;;;19.76;20.02
8894;BME280;4483;48.622;9.230;2023-04-06T13:18:29;97907.03;;;19.90;19.81
8894;BME280;4483;48.622;9.230;2023-04-06T13:20:56;97906.56;;;19.96;20.09
8894;BME280;4483;48.622;9.230;2023-04-06T13:23:23;97898.00;;;19.94;19.80
8894;BME280;4483;48.622;9.230;2023-04-06T13:25:57;97901.81;;;20.12;19.72
8894;BME280;4483;48.622;9.230;2023-04-06T13:28:24;97898.22;;;20.13;19.44